Proctor, Minnesota
Current Conditions -  °F | °C
As of 7:55 AM on Tuesday 21 Oct 2014 (Local Time) from KDLH Reporting Station
Overcast Overcast  
Wind Chill: 35°   Ceiling: 1500
Heat Index: 42°   Visibility: 10mi
Dew Point: 35°   Wind: 13mph
Humidity: 76%   Direction: 120°ESE
Pressure: 30.2"   Gusts: NA
Location:  46.7582°N, 92.2733°W
Report Text: KDLH 211255Z 12011KT 10SM OVC015 06/02 A3020 RMK AO2 SLP239 T00560017
Loading
Personal Weather Stations






























Interactive Weather Map
Tropical Storm Tracking
New forecast layout! Learn more

10-Day Weather Forecast

Advertisements
Track Severe Weather on mobile